createdAt,value
2019-05-13T00:00:23.512Z,98456.09
2019-05-13T00:02:55.316Z,98449.62
2019-05-13T00:05:28.146Z,98455.42
2019-05-13T00:07:59.440Z,98449.75
2019-05-13T00:10:30.765Z,98452.61
2019-05-13T00:13:04.488Z,98450.80
2019-05-13T00:15:35.245Z,98451.36
2019-05-13T00:18:06.712Z,98448.31
2019-05-13T00:20:38.088Z,98453.02
2019-05-13T00:23:09.613Z,98450.03
2019-05-13T00:25:41.040Z,98445.34
2019-05-13T00:28:14.435Z,98447.91
2019-05-13T00:30:45.606Z,98440.95
2019-05-13T00:33:17.110Z,98445.86
2019-05-13T00:35:48.497Z,98440.19
2019-05-13T00:38:19.922Z,98446.58
2019-05-13T00:40:51.528Z,98444.73
2019-05-13T00:43:24.499Z,98445.90
2019-05-13T00:45:57.021Z,98440.27
2019-05-13T00:48:29.825Z,98443.69
2019-05-13T00:51:03.497Z,98441.36
2019-05-13T00:53:35.482Z,98435.17
2019-05-13T00:56:07.189Z,98438.67
2019-05-13T00:58:38.498Z,98437.34
2019-05-13T01:01:09.908Z,98440.84
2019-05-13T01:03:41.495Z,98439.03
2019-05-13T01:06:13.412Z,98434.61
2019-05-13T01:08:45.104Z,98438.11
2019-05-13T01:11:16.429Z,98437.19
2019-05-13T01:13:48.214Z,98440.48
2019-05-13T01:16:19.696Z,98440.44
2019-05-13T01:18:50.976Z,98432.97
2019-05-13T01:21:23.928Z,98438.47
2019-05-13T01:23:55.397Z,98438.23
2019-05-13T01:26:26.706Z,98432.32
2019-05-13T01:28:58.144Z,98433.09
2019-05-13T01:31:29.548Z,98436.78
2019-05-13T01:34:01.274Z,98435.45
2019-05-13T01:36:34.045Z,98439.50
2019-05-13T01:39:07.872Z,98433.70
2019-05-13T01:41:39.171Z,98436.02
2019-05-13T01:44:10.950Z,98425.91
2019-05-13T01:46:43.723Z,98438.36
2019-05-13T01:49:18.518Z,98432.50
2019-05-13T01:51:48.925Z,98429.57
2019-05-13T01:54:20.401Z,98434.05
2019-05-13T01:56:53.521Z,98420.86
2019-05-13T01:59:25.488Z,98423.43
2019-05-13T02:01:56.917Z,98428.45
2019-05-13T02:04:28.519Z,98431.99
2019-05-13T02:07:00.062Z,98440.91
2019-05-13T02:09:33.687Z,98431.37
2019-05-13T02:12:05.508Z,98430.73
2019-05-13T02:14:37.299Z,98431.98
2019-05-13T02:17:08.750Z,98435.35
2019-05-13T02:19:40.573Z,98432.86
2019-05-13T02:22:14.411Z,98433.98
2019-05-13T02:24:45.254Z,98441.33
2019-05-13T02:27:17.202Z,98436.88
2019-05-13T02:29:48.753Z,98439.86
2019-05-13T02:32:23.286Z,98431.22
2019-05-13T02:34:53.487Z,98441.67
2019-05-13T02:37:29.243Z,98433.27
2019-05-13T02:40:03.153Z,98438.36
2019-05-13T02:42:32.926Z,98433.81
2019-05-13T02:45:15.362Z,98441.59
2019-05-13T02:47:47.778Z,98443.23
2019-05-13T02:50:22.358Z,98441.69
2019-05-13T02:52:53.105Z,98439.83
2019-05-13T02:55:25.599Z,98445.10
2019-05-13T02:57:57.368Z,98447.77
2019-05-13T03:00:28.746Z,98442.89
2019-05-13T03:03:03.325Z,98438.33
2019-05-13T03:05:33.397Z,98439.08
2019-05-13T03:08:04.847Z,98440.19
2019-05-13T03:10:36.292Z,98438.91
2019-05-13T03:13:08.063Z,98439.26
2019-05-13T03:15:47.574Z,98446.56
2019-05-13T03:18:22.590Z,98441.12
2019-05-13T03:20:55.401Z,98447.53
2019-05-13T03:23:26.857Z,98452.48
2019-05-13T03:25:58.201Z,98457.44
2019-05-13T03:28:33.148Z,98461.20
2019-05-13T03:31:06.416Z,98461.45
2019-05-13T03:33:37.723Z,98459.63
2019-05-13T03:36:16.385Z,98462.06
2019-05-13T03:38:59.937Z,98462.63
2019-05-13T03:41:22.535Z,98464.26
2019-05-13T03:43:55.584Z,98459.27
2019-05-13T03:46:33.143Z,98474.77
2019-05-13T03:49:04.746Z,98472.68
2019-05-13T03:51:36.562Z,98482.25
2019-05-13T03:54:12.641Z,98476.53
2019-05-13T03:56:43.302Z,98483.16
2019-05-13T03:59:14.948Z,98487.36
2019-05-13T04:01:46.632Z,98480.16
2019-05-13T04:04:18.089Z,98481.80
2019-05-13T04:06:52.768Z,98485.21
2019-05-13T04:09:31.236Z,98487.19
2019-05-13T04:11:56.482Z,98480.08
2019-05-13T04:14:28.220Z,98490.63
2019-05-13T04:17:02.861Z,98486.42
2019-05-13T04:19:34.556Z,98493.38
2019-05-13T04:22:05.992Z,98502.20
2019-05-13T04:24:38.338Z,98502.72
2019-05-13T04:27:12.906Z,98510.07
2019-05-13T04:29:43.515Z,98503.66
2019-05-13T04:32:15.922Z,98511.45
2019-05-13T04:34:48.033Z,98509.02
2019-05-13T04:37:22.271Z,98514.34
2019-05-13T04:39:56.448Z,98516.24
2019-05-13T04:42:25.863Z,98514.72
2019-05-13T04:44:57.339Z,98522.56
2019-05-13T04:47:28.858Z,98517.53
2019-05-13T04:50:02.858Z,98514.16
2019-05-13T04:52:34.340Z,98520.88
2019-05-13T04:55:06.320Z,98523.15
2019-05-13T04:57:37.974Z,98529.01
2019-05-13T05:00:12.824Z,98532.43
2019-05-13T05:03:32.669Z,98528.98
2019-05-13T05:06:33.460Z,98524.47
2019-05-13T05:09:22.680Z,98529.13
2019-05-13T05:12:51.732Z,98530.59
2019-05-13T05:16:07.355Z,98521.43
2019-05-13T05:19:32.295Z,98529.89
2019-05-13T05:23:32.003Z,98534.68
2019-05-13T05:27:01.478Z,98539.87
2019-05-13T05:30:07.317Z,98540.63
2019-05-13T05:33:03.061Z,98537.23
2019-05-13T05:36:33.046Z,98547.03
2019-05-13T05:39:23.613Z,98545.91
2019-05-13T05:41:58.136Z,98545.27
2019-05-13T05:44:32.593Z,98552.73
2019-05-13T05:47:05.637Z,98552.70
2019-05-13T05:49:41.077Z,98552.55
2019-05-13T05:52:13.670Z,98543.69
2019-05-13T05:54:48.436Z,98545.87
2019-05-13T05:57:36.822Z,98537.70
2019-05-13T06:00:29.121Z,98548.71
2019-05-13T06:03:04.378Z,98545.08
2019-05-13T06:05:37.390Z,98546.66
2019-05-13T06:08:11.297Z,98541.88
2019-05-13T06:10:49.908Z,98547.95
2019-05-13T06:13:16.411Z,98547.20
2019-05-13T06:15:47.942Z,98547.34
2019-05-13T06:18:22.183Z,98547.48
2019-05-13T06:20:53.221Z,98551.93
2019-05-13T06:23:24.676Z,98546.99
2019-05-13T06:25:56.396Z,98551.33
2019-05-13T06:28:27.850Z,98549.45
2019-05-13T06:31:02.436Z,98554.38
2019-05-13T06:33:34.120Z,98556.76
2019-05-13T06:36:05.794Z,98560.91
2019-05-13T06:38:37.264Z,98548.19
2019-05-13T06:41:12.269Z,98554.16
2019-05-13T06:43:42.175Z,98554.97
2019-05-13T06:46:14.014Z,98560.89
2019-05-13T06:48:45.460Z,98562.37
2019-05-13T06:51:17.113Z,98559.75
2019-05-13T06:53:48.349Z,98559.35
2019-05-13T06:56:21.752Z,98564.45
2019-05-13T06:58:53.192Z,98561.30
2019-05-13T07:01:25.107Z,98554.59
2019-05-13T07:03:56.570Z,98575.23
2019-05-13T07:06:27.983Z,98570.70
2019-05-13T07:09:01.416Z,98577.07
2019-05-13T07:11:34.330Z,98576.15
2019-05-13T07:14:05.968Z,98567.72
2019-05-13T07:16:37.383Z,98573.98
2019-05-13T07:19:08.807Z,98569.74
2019-05-13T07:21:41.754Z,98574.77
2019-05-13T07:24:13.376Z,98575.48
2019-05-13T07:26:46.495Z,98580.13
2019-05-13T07:29:18.529Z,98579.98
2019-05-13T07:31:52.281Z,98586.94
2019-05-13T07:34:24.792Z,98580.14
2019-05-13T07:36:56.748Z,98571.00
2019-05-13T07:39:28.393Z,98576.27
2019-05-13T07:42:05.063Z,98573.55
2019-05-13T07:44:33.335Z,98573.91
2019-05-13T07:47:05.352Z,98575.15
2019-05-13T07:49:36.896Z,98560.55
2019-05-13T07:52:08.370Z,98565.36
2019-05-13T07:54:41.972Z,98567.09
2019-05-13T07:57:13.301Z,98568.73
2019-05-13T07:59:44.787Z,98565.11
2019-05-13T08:02:16.304Z,98561.36
2019-05-13T08:04:49.477Z,98560.91
2019-05-13T08:07:22.689Z,98559.54
2019-05-13T08:09:56.852Z,98573.39
2019-05-13T08:12:27.247Z,98565.13
2019-05-13T08:14:59.036Z,98558.30
2019-05-13T08:17:47.310Z,98565.11
2019-05-13T08:20:32.737Z,98569.73
2019-05-13T08:23:08.262Z,98566.31
2019-05-13T08:25:42.124Z,98564.95
2019-05-13T08:28:13.636Z,98569.75
2019-05-13T08:30:45.115Z,98562.39
2019-05-13T08:33:16.452Z,98560.53
2019-05-13T08:35:54.034Z,98563.19
2019-05-13T08:38:22.960Z,98568.63
2019-05-13T08:40:53.835Z,98563.14
2019-05-13T08:43:25.199Z,98574.02
2019-05-13T08:45:56.559Z,98557.55
2019-05-13T08:48:27.994Z,98563.28
2019-05-13T08:50:59.432Z,98573.35
2019-05-13T08:53:31.726Z,98563.98
2019-05-13T08:56:04.680Z,98562.77
2019-05-13T08:58:36.540Z,98560.66
2019-05-13T09:01:08.119Z,98566.31
2019-05-13T09:03:41.754Z,98567.94
2019-05-13T09:06:13.547Z,98574.23
2019-05-13T09:08:45.013Z,98564.70
2019-05-13T09:11:16.446Z,98565.59
2019-05-13T09:13:48.095Z,98571.36
2019-05-13T09:16:21.472Z,98569.94
2019-05-13T09:18:52.989Z,98576.91
2019-05-13T09:21:24.428Z,98571.12
2019-05-13T09:23:55.886Z,98555.11
2019-05-13T09:26:27.317Z,98556.19
2019-05-13T09:29:01.259Z,98543.08
2019-05-13T09:31:32.512Z,98545.31
2019-05-13T09:34:04.270Z,98541.40
2019-05-13T09:36:35.739Z,98548.42
2019-05-13T09:39:08.938Z,98551.86
2019-05-13T09:41:43.745Z,98551.70
2019-05-13T09:44:13.919Z,98552.41
2019-05-13T09:46:45.736Z,98549.27
2019-05-13T09:49:20.187Z,98545.20
2019-05-13T09:51:52.319Z,98547.07
2019-05-13T09:54:24.232Z,98536.05
2019-05-13T09:56:55.721Z,98547.50
2019-05-13T09:59:27.534Z,98530.11
2019-05-13T10:01:58.969Z,98540.98
2019-05-13T10:04:31.758Z,98541.41
2019-05-13T10:07:03.600Z,98535.86
2019-05-13T10:09:35.082Z,98534.80
2019-05-13T10:12:07.136Z,98536.34
2019-05-13T10:14:38.931Z,98543.49
2019-05-13T10:17:13.190Z,98532.95
2019-05-13T10:19:44.502Z,98540.13
2019-05-13T10:22:16.005Z,98532.36
2019-05-13T10:24:47.443Z,98526.97
2019-05-13T10:27:22.328Z,98521.89
2019-05-13T10:29:54.044Z,98522.03
2019-05-13T10:32:25.573Z,98519.41
2019-05-13T10:34:58.092Z,98516.71
2019-05-13T10:37:29.619Z,98508.61
2019-05-13T10:40:02.397Z,98503.84
2019-05-13T10:42:34.786Z,98512.91
2019-05-13T10:45:06.559Z,98507.15
2019-05-13T10:47:42.104Z,98499.59
2019-05-13T10:50:13.747Z,98491.70
2019-05-13T10:52:45.121Z,98497.52
2019-05-13T10:55:18.145Z,98512.25
2019-05-13T10:57:51.387Z,98507.56
2019-05-13T11:00:55.114Z,98504.32
2019-05-13T11:03:26.537Z,98510.94
2019-05-13T11:05:58.203Z,98519.47
2019-05-13T11:08:32.230Z,98523.57
2019-05-13T11:11:03.610Z,98518.59
2019-05-13T11:13:52.180Z,98520.00
2019-05-13T11:16:12.220Z,98513.25
2019-05-13T11:18:43.168Z,98505.70
2019-05-13T11:21:14.993Z,98498.23
2019-05-13T11:23:46.553Z,98495.58
2019-05-13T11:26:18.161Z,98510.06
2019-05-13T11:28:52.167Z,98491.03
2019-05-13T11:31:22.744Z,98487.02
2019-05-13T11:33:54.585Z,98484.94
2019-05-13T11:36:26.327Z,98488.23
2019-05-13T11:38:58.086Z,98493.95
2019-05-13T11:41:29.429Z,98493.87
2019-05-13T11:44:12.954Z,98486.11
2019-05-13T11:46:33.992Z,98480.42
2019-05-13T11:49:05.581Z,98478.00
2019-05-13T11:51:37.281Z,98483.77
2019-05-13T11:54:09.004Z,98479.24
2019-05-13T11:56:48.944Z,98479.08
2019-05-13T11:59:14.405Z,98472.02
2019-05-13T12:01:46.079Z,98467.39
2019-05-13T12:04:17.376Z,98477.07
2019-05-13T12:06:53.636Z,98473.10
2019-05-13T12:09:22.387Z,98474.02
2019-05-13T12:11:53.779Z,98475.66
2019-05-13T12:14:43.020Z,98460.52
2019-05-13T12:16:58.280Z,98459.86
2019-05-13T12:19:31.214Z,98462.03
2019-05-13T12:22:03.091Z,98466.61
2019-05-13T12:24:35.666Z,98463.72
2019-05-13T12:27:07.486Z,98467.32
2019-05-13T12:29:42.743Z,98458.28
2019-05-13T12:32:13.954Z,98462.80
2019-05-13T12:34:46.172Z,98461.13
2019-05-13T12:37:17.664Z,98460.40
2019-05-13T12:39:52.184Z,98458.17
2019-05-13T12:42:22.947Z,98465.23
2019-05-13T12:45:09.459Z,98466.17
2019-05-13T12:47:27.433Z,98456.24
2019-05-13T12:50:02.744Z,98460.96
2019-05-13T12:52:32.637Z,98447.19
2019-05-13T12:55:04.612Z,98446.23
2019-05-13T12:57:36.069Z,98444.44
2019-05-13T13:00:08.232Z,98443.39
2019-05-13T13:02:40.009Z,98435.77
2019-05-13T13:05:19.747Z,98443.64
2019-05-13T13:08:12.076Z,98427.44
2019-05-13T13:10:22.854Z,98441.61
2019-05-13T13:12:54.546Z,98448.86
2019-05-13T13:17:58.733Z,98452.88
2019-05-13T13:20:33.583Z,98454.48
2019-05-13T13:23:04.434Z,98440.91
2019-05-13T13:25:36.029Z,98437.47
2019-05-13T13:28:12.083Z,98437.69
2019-05-13T13:30:43.869Z,98430.96
2019-05-13T13:33:15.331Z,98446.16
2019-05-13T13:35:55.016Z,98439.16
2019-05-13T13:38:25.071Z,98436.56
2019-05-13T13:40:54.070Z,98417.50
2019-05-13T13:43:25.935Z,98417.73
2019-05-13T13:46:11.763Z,98413.88
2019-05-13T13:48:33.249Z,98413.80
2019-05-13T13:51:04.889Z,98421.64
2019-05-13T13:53:36.685Z,98432.67
2019-05-13T13:56:08.125Z,98423.27
2019-05-13T13:58:43.865Z,98418.42
2019-05-13T14:03:46.474Z,98416.41
2019-05-13T14:07:09.042Z,98452.26
2019-05-13T14:07:13.476Z,98405.22
2019-05-13T14:07:16.485Z,98395.58
2019-05-13T14:08:52.050Z,98409.00
2019-05-13T14:11:25.159Z,98420.38
2019-05-13T14:13:56.467Z,98413.77
2019-05-13T14:16:32.492Z,98421.80
2019-05-13T14:19:01.042Z,98424.38
2019-05-13T14:21:32.741Z,98406.88
2019-05-13T14:24:04.259Z,98403.03
2019-05-13T14:26:35.811Z,98405.27
2019-05-13T14:29:07.354Z,98397.02
2019-05-13T14:31:41.213Z,98393.37
2019-05-13T14:34:11.796Z,98385.83
2019-05-13T14:36:43.367Z,98371.71
2019-05-13T14:39:14.817Z,98365.58
2019-05-13T14:41:46.405Z,98373.67
2019-05-13T14:44:18.396Z,98373.31
2019-05-13T14:46:52.145Z,98375.47
2019-05-13T14:49:23.162Z,98376.63
2019-05-13T14:51:56.437Z,98367.23
2019-05-13T14:54:27.516Z,98356.22
2019-05-13T14:56:58.942Z,98364.22
2019-05-13T14:59:31.469Z,98371.58
2019-05-13T15:02:03.042Z,98371.36
2019-05-13T15:04:34.552Z,98362.52
2019-05-13T15:07:06.096Z,98372.17
2019-05-13T15:09:37.463Z,98373.52
2019-05-13T15:12:09.019Z,98377.14
2019-05-13T15:14:42.778Z,98374.12
2019-05-13T15:17:13.530Z,98374.38
2019-05-13T15:19:45.407Z,98376.40
2019-05-13T15:22:16.840Z,98381.02
2019-05-13T15:24:48.790Z,98370.08
2019-05-13T15:27:22.259Z,98366.55
2019-05-13T15:29:53.327Z,98366.89
2019-05-13T15:32:24.732Z,98364.71
2019-05-13T15:34:56.091Z,98362.88
2019-05-13T15:37:27.753Z,98363.31
2019-05-13T15:39:59.161Z,98358.54
2019-05-13T15:42:31.932Z,98358.16
2019-05-13T15:45:03.437Z,98373.16
2019-05-13T15:47:34.721Z,98363.87
2019-05-13T15:50:06.605Z,98356.55
2019-05-13T15:52:37.960Z,98354.64
2019-05-13T15:55:11.952Z,98346.55
2019-05-13T15:57:44.120Z,98349.84
2019-05-13T16:00:15.658Z,98354.82
2019-05-13T16:02:47.050Z,98355.26
2019-05-13T16:05:18.465Z,98352.41
2019-05-13T16:07:51.690Z,98350.77
2019-05-13T16:10:23.081Z,98350.93
2019-05-13T16:12:54.575Z,98353.59
2019-05-13T16:15:26.048Z,98344.81
2019-05-13T16:17:57.329Z,98351.31
2019-05-13T16:20:29.029Z,98351.91
2019-05-13T16:23:02.365Z,98352.03
2019-05-13T16:25:35.012Z,98345.24
2019-05-13T16:28:06.547Z,98357.40
2019-05-13T16:30:38.111Z,98349.39
2019-05-13T16:33:12.045Z,98340.77
2019-05-13T16:35:42.669Z,98339.53
2019-05-13T16:38:14.111Z,98339.70
2019-05-13T16:40:45.661Z,98332.45
2019-05-13T16:43:17.142Z,98331.25
2019-05-13T16:45:48.617Z,98336.47
2019-05-13T16:48:21.529Z,98330.34
2019-05-13T16:50:53.100Z,98329.92
2019-05-13T16:53:26.004Z,98338.78
2019-05-13T16:55:57.583Z,98346.75
2019-05-13T16:58:32.437Z,98351.50
2019-05-13T17:01:04.202Z,98345.55
2019-05-13T17:03:35.722Z,98337.83
2019-05-13T17:06:07.164Z,98347.10
2019-05-13T17:08:38.618Z,98341.60
2019-05-13T17:11:11.878Z,98345.19
2019-05-13T17:13:43.855Z,98349.55
2019-05-13T17:16:15.759Z,98357.21
2019-05-13T17:18:47.335Z,98354.45
2019-05-13T17:21:21.190Z,98359.42
2019-05-13T17:23:52.597Z,98356.56
2019-05-13T17:26:24.685Z,98356.06
2019-05-13T17:28:56.132Z,98361.54
2019-05-13T17:31:28.541Z,98367.52
2019-05-13T17:34:01.481Z,98360.60
2019-05-13T17:36:33.251Z,98372.19
2019-05-13T17:39:06.751Z,98375.88
2019-05-13T17:41:38.292Z,98379.89
2019-05-13T17:44:11.717Z,98379.17
2019-05-13T17:46:42.956Z,98389.00
2019-05-13T17:49:14.761Z,98385.94
2019-05-13T17:51:46.290Z,98385.60
2019-05-13T17:54:17.773Z,98385.06
2019-05-13T17:56:49.774Z,98385.11
2019-05-13T17:59:21.835Z,98385.58
2019-05-13T18:01:53.420Z,98383.47
2019-05-13T18:04:25.034Z,98379.73
2019-05-13T18:06:58.735Z,98384.23
2019-05-13T18:09:31.871Z,98395.81
2019-05-13T18:12:04.156Z,98390.48
2019-05-13T18:14:36.077Z,98393.70
2019-05-13T18:17:07.608Z,98397.03
2019-05-13T18:19:39.040Z,98390.55
2019-05-13T18:22:11.506Z,98393.30
2019-05-13T18:24:43.107Z,98390.65
2019-05-13T18:27:14.533Z,98387.67
2019-05-13T18:29:46.384Z,98392.53
2019-05-13T18:32:17.848Z,98396.23
2019-05-13T18:34:49.833Z,98400.78
2019-05-13T18:37:22.142Z,98395.50
2019-05-13T18:39:53.798Z,98399.10
2019-05-13T18:42:25.588Z,98403.27
2019-05-13T18:44:57.064Z,98398.49
2019-05-13T18:47:28.629Z,98402.97
2019-05-13T18:50:02.350Z,98402.12
2019-05-13T18:52:33.941Z,98400.66
2019-05-13T18:55:05.783Z,98406.11
2019-05-13T18:57:37.212Z,98407.68
2019-05-13T19:00:11.163Z,98410.06
2019-05-13T19:02:42.586Z,98410.02
2019-05-13T19:05:15.476Z,98410.20
2019-05-13T19:07:48.193Z,98423.39
2019-05-13T19:10:21.851Z,98420.74
2019-05-13T19:12:53.231Z,98425.35
2019-05-13T19:15:24.828Z,98432.02
2019-05-13T19:17:56.649Z,98430.83
2019-05-13T19:20:28.187Z,98437.58
2019-05-13T19:23:01.127Z,98434.05
2019-05-13T19:25:32.734Z,98439.47
2019-05-13T19:28:04.293Z,98434.81
2019-05-13T19:30:35.799Z,98445.95
2019-05-13T19:33:07.231Z,98441.70
2019-05-13T19:35:38.866Z,98443.53
2019-05-13T19:38:12.109Z,98452.00
2019-05-13T19:40:43.439Z,98445.13
2019-05-13T19:43:14.828Z,98454.71
2019-05-13T19:45:46.268Z,98452.13
2019-05-13T19:48:18.255Z,98447.92
2019-05-13T19:50:51.963Z,98447.11
2019-05-13T19:53:23.081Z,98450.88
2019-05-13T19:55:54.436Z,98446.02
2019-05-13T19:58:25.755Z,98445.97
2019-05-13T20:00:57.258Z,98454.14
2019-05-13T20:03:28.681Z,98447.45
2019-05-13T20:06:02.207Z,98442.12
2019-05-13T20:08:33.591Z,98444.98
2019-05-13T20:11:05.298Z,98444.06
2019-05-13T20:13:36.728Z,98452.75
2019-05-13T20:16:08.172Z,98446.56
2019-05-13T20:18:41.430Z,98446.37
2019-05-13T20:21:13.625Z,98445.15
2019-05-13T20:23:45.078Z,98444.43
2019-05-13T20:26:16.757Z,98446.30
2019-05-13T20:28:48.733Z,98448.67
2019-05-13T20:31:21.763Z,98447.65
2019-05-13T20:33:53.183Z,98451.04
2019-05-13T20:36:24.559Z,98462.78
2019-05-13T20:38:56.211Z,98452.96
2019-05-13T20:41:27.489Z,98456.31
2019-05-13T20:44:01.332Z,98458.77
2019-05-13T20:46:32.780Z,98456.45
2019-05-13T20:49:04.364Z,98455.33
2019-05-13T20:51:36.776Z,98460.41
2019-05-13T20:54:08.133Z,98456.73
2019-05-13T20:56:42.007Z,98453.16
2019-05-13T20:59:12.941Z,98456.33
2019-05-13T21:01:44.476Z,98452.80
2019-05-13T21:04:15.794Z,98454.05
2019-05-13T21:06:47.288Z,98453.09
2019-05-13T21:09:18.714Z,98460.56
2019-05-13T21:11:51.549Z,98451.91
2019-05-13T21:14:23.134Z,98455.41
2019-05-13T21:16:54.522Z,98458.80
2019-05-13T21:19:26.023Z,98450.11
2019-05-13T21:21:57.359Z,98443.52
2019-05-13T21:24:28.800Z,98441.42
2019-05-13T21:27:01.990Z,98442.74
2019-05-13T21:29:33.595Z,98440.41
2019-05-13T21:32:05.341Z,98437.16
2019-05-13T21:34:36.860Z,98440.70
2019-05-13T21:37:08.663Z,98437.94
2019-05-13T21:39:41.253Z,98432.06
2019-05-13T21:42:12.858Z,98431.70
2019-05-13T21:44:44.224Z,98433.59
2019-05-13T21:47:15.791Z,98430.50
2019-05-13T21:49:47.099Z,98431.72
2019-05-13T21:52:23.580Z,98433.33
2019-05-13T21:54:52.056Z,98431.92
2019-05-13T21:57:24.902Z,98437.42
2019-05-13T21:59:56.265Z,98431.99
2019-05-13T22:02:27.799Z,98424.20
2019-05-13T22:05:01.046Z,98426.78
2019-05-13T22:07:32.398Z,98425.49
2019-05-13T22:10:04.682Z,98421.88
2019-05-13T22:12:36.106Z,98431.91
2019-05-13T22:15:09.075Z,98424.95
2019-05-13T22:17:42.214Z,98422.94
2019-05-13T22:20:13.833Z,98420.07
2019-05-13T22:22:45.497Z,98415.05
2019-05-13T22:25:16.937Z,98410.84
2019-05-13T22:27:48.313Z,98417.81
2019-05-13T22:30:20.340Z,98412.14
2019-05-13T22:32:52.270Z,98412.81
2019-05-13T22:35:23.815Z,98409.72
2019-05-13T22:37:55.176Z,98420.34
2019-05-13T22:40:26.707Z,98416.67
2019-05-13T22:42:58.036Z,98419.87
2019-05-13T22:45:31.286Z,98411.58
2019-05-13T22:48:03.006Z,98407.60
2019-05-13T22:50:34.537Z,98399.31
2019-05-13T22:53:06.346Z,98404.91
2019-05-13T22:55:37.833Z,98406.31
2019-05-13T22:58:09.340Z,98404.05
2019-05-13T23:00:42.334Z,98405.25
2019-05-13T23:03:15.599Z,98396.48
2019-05-13T23:05:47.136Z,98400.82
2019-05-13T23:08:18.644Z,98396.26
2019-05-13T23:10:51.423Z,98402.49
2019-05-13T23:13:23.370Z,98399.03
2019-05-13T23:15:54.861Z,98394.30
2019-05-13T23:18:26.602Z,98392.77
2019-05-13T23:20:58.078Z,98389.81
2019-05-13T23:23:29.742Z,98383.08
2019-05-13T23:26:01.237Z,98391.77
2019-05-13T23:28:32.982Z,98382.97
2019-05-13T23:31:04.519Z,98378.27
2019-05-13T23:33:36.244Z,98377.33
2019-05-13T23:36:07.708Z,98375.78
2019-05-13T23:38:41.365Z,98370.71
2019-05-13T23:41:12.609Z,98361.30
2019-05-13T23:43:44.443Z,98364.00
2019-05-13T23:46:15.928Z,98356.30
2019-05-13T23:48:47.407Z,98359.22
2019-05-13T23:51:18.881Z,98356.06
2019-05-13T23:53:50.959Z,98350.00
2019-05-13T23:56:22.715Z,98347.65
2019-05-13T23:58:54.627Z,98344.04
